createdAt,value
2022-11-27T00:00:10.866Z,100777.59
2022-11-27T00:05:14.328Z,100781.19
2022-11-27T00:10:17.992Z,100780.41
2022-11-27T00:15:22.854Z,100790.00
2022-11-27T00:20:29.568Z,100793.16
2022-11-27T00:25:33.364Z,100796.34
2022-11-27T00:30:38.138Z,100792.59
2022-11-27T00:35:41.418Z,100784.38
2022-11-27T00:40:44.862Z,100787.81
2022-11-27T00:45:51.560Z,100790.38
2022-11-27T00:51:00.960Z,100788.78
2022-11-27T00:56:04.624Z,100786.16
2022-11-27T01:01:09.892Z,100789.09
2022-11-27T01:06:13.800Z,100786.91
2022-11-27T01:11:19.305Z,100770.22
2022-11-27T01:16:26.347Z,100791.16
2022-11-27T01:21:32.344Z,100781.00
2022-11-27T01:26:35.893Z,100789.53
2022-11-27T01:31:41.437Z,100798.00
2022-11-27T01:36:45.386Z,100784.47
2022-11-27T01:41:49.868Z,100789.75
2022-11-27T01:46:57.062Z,100786.53
2022-11-27T01:52:03.355Z,100794.53
2022-11-27T01:57:09.645Z,100800.22
2022-11-27T02:02:14.450Z,100792.94
2022-11-27T02:07:17.854Z,100798.47
2022-11-27T02:12:26.144Z,100812.13
2022-11-27T02:17:37.810Z,100798.41
2022-11-27T02:22:57.972Z,100794.34
2022-11-27T02:28:15.728Z,100800.16
2022-11-27T02:33:23.144Z,100792.88
2022-11-27T02:38:31.716Z,100788.28
2022-11-27T02:43:38.985Z,100809.84
2022-11-27T02:48:48.153Z,100809.84
2022-11-27T02:53:55.192Z,100808.66
2022-11-27T02:59:02.964Z,100790.59
2022-11-27T03:04:11.292Z,100811.34
2022-11-27T03:09:19.403Z,100823.34
2022-11-27T03:14:24.914Z,100818.72
2022-11-27T03:19:38.668Z,100812.38
2022-11-27T03:24:42.498Z,100813.41
2022-11-27T03:29:51.279Z,100823.34
2022-11-27T03:34:56.838Z,100816.59
2022-11-27T03:40:00.185Z,100809.44
2022-11-27T03:45:09.826Z,100809.28
2022-11-27T03:50:34.887Z,100810.28
2022-11-27T03:55:42.695Z,100814.84
2022-11-27T04:00:46.908Z,100813.94
2022-11-27T04:05:51.637Z,100811.91
2022-11-27T04:10:54.721Z,100809.59
2022-11-27T04:16:02.344Z,100808.41
2022-11-27T04:21:07.483Z,100807.94
2022-11-27T04:26:11.030Z,100811.41
2022-11-27T04:31:14.613Z,100802.97
2022-11-27T04:36:19.251Z,100814.81
2022-11-27T04:41:22.656Z,100814.47
2022-11-27T04:46:25.978Z,100821.94
2022-11-27T04:51:30.664Z,100819.16
2022-11-27T04:56:33.653Z,100817.94
2022-11-27T05:01:37.288Z,100823.34
2022-11-27T05:06:42.091Z,100823.03
2022-11-27T05:11:45.428Z,100825.75
2022-11-27T05:16:50.227Z,100816.31
2022-11-27T05:21:55.646Z,100817.72
2022-11-27T05:26:59.372Z,100818.94
2022-11-27T05:32:02.851Z,100826.03
2022-11-27T05:37:07.566Z,100829.63
2022-11-27T05:42:10.705Z,100818.81
2022-11-27T05:47:13.925Z,100824.13
2022-11-27T05:52:18.619Z,100836.03
2022-11-27T05:57:22.165Z,100844.88
2022-11-27T06:02:29.412Z,100836.31
2022-11-27T06:07:34.502Z,100838.19
2022-11-27T06:12:37.566Z,100841.97
2022-11-27T06:17:41.188Z,100833.09
2022-11-27T06:22:45.981Z,100835.53
2022-11-27T06:27:49.087Z,100835.53
2022-11-27T06:32:52.742Z,100847.38
2022-11-27T06:37:57.453Z,100853.69
2022-11-27T06:43:01.065Z,100847.50
2022-11-27T06:48:04.511Z,100843.28
2022-11-27T06:53:09.165Z,100852.16
2022-11-27T06:58:12.485Z,100853.13
2022-11-27T07:03:15.885Z,100854.25
2022-11-27T07:08:20.807Z,100853.19
2022-11-27T07:13:25.414Z,100852.06
2022-11-27T07:18:28.704Z,100845.69
2022-11-27T07:23:33.523Z,100853.91
2022-11-27T07:28:36.580Z,100852.47
2022-11-27T07:33:39.990Z,100860.03
2022-11-27T07:38:46.776Z,100856.97
2022-11-27T07:43:50.541Z,100854.28
2022-11-27T07:48:54.116Z,100842.13
2022-11-27T07:53:58.903Z,100849.19
2022-11-27T07:59:02.010Z,100841.97
2022-11-27T08:04:05.390Z,100846.53
2022-11-27T08:09:10.054Z,100844.91
2022-11-27T08:14:15.012Z,100836.22
2022-11-27T08:19:18.187Z,100839.78
2022-11-27T08:24:22.992Z,100830.16
2022-11-27T08:29:31.185Z,100841.53
2022-11-27T08:34:37.318Z,100839.78
2022-11-27T08:39:41.944Z,100842.94
2022-11-27T08:44:45.137Z,100840.28
2022-11-27T08:49:48.550Z,100846.88
2022-11-27T08:54:57.351Z,100839.91
2022-11-27T09:00:01.216Z,100842.38
2022-11-27T09:05:06.832Z,100854.25
2022-11-27T09:10:12.125Z,100844.06
2022-11-27T09:15:15.597Z,100841.09
2022-11-27T09:20:19.650Z,100854.19
2022-11-27T09:25:24.327Z,100838.88
2022-11-27T09:30:27.536Z,100847.38
2022-11-27T09:35:30.933Z,100841.50
2022-11-27T09:40:36.265Z,100843.06
2022-11-27T09:45:45.693Z,100844.91
2022-11-27T09:50:53.437Z,100841.69
2022-11-27T09:56:00.255Z,100841.34
2022-11-27T10:01:10.755Z,100843.28
2022-11-27T10:06:25.629Z,100841.03
2022-11-27T10:11:34.209Z,100845.75
2022-11-27T10:16:44.686Z,100842.69
2022-11-27T10:21:53.757Z,100842.00
2022-11-27T10:27:00.490Z,100845.22
2022-11-27T10:32:26.743Z,100845.41
2022-11-27T10:37:41.218Z,100840.13
2022-11-27T10:42:51.042Z,100848.34
2022-11-27T10:47:54.361Z,100842.13
2022-11-27T10:53:01.573Z,100843.09
2022-11-27T10:58:12.434Z,100851.38
2022-11-27T11:03:19.252Z,100839.41
2022-11-27T11:08:24.565Z,100840.31
2022-11-27T11:13:31.004Z,100830.44
2022-11-27T11:18:36.693Z,100834.50
2022-11-27T11:23:42.435Z,100842.81
2022-11-27T11:28:51.903Z,100834.81
2022-11-27T11:33:59.953Z,100842.03
2022-11-27T11:39:03.342Z,100841.03
2022-11-27T11:44:21.453Z,100846.34
2022-11-27T11:49:27.367Z,100859.56
2022-11-27T11:54:44.127Z,100856.28
2022-11-27T11:59:55.817Z,100855.22
2022-11-27T12:05:28.204Z,100859.03
2022-11-27T12:10:40.364Z,100848.78
2022-11-27T12:15:51.626Z,100861.44
2022-11-27T12:21:07.916Z,100873.84
2022-11-27T12:26:22.601Z,100864.94
2022-11-27T12:31:42.004Z,100867.66
2022-11-27T12:37:04.141Z,100864.03
2022-11-27T12:42:22.158Z,100866.78
2022-11-27T12:47:34.952Z,100873.66
2022-11-27T12:52:42.733Z,100869.25
2022-11-27T12:57:50.758Z,100883.25
2022-11-27T13:03:04.154Z,100866.94
2022-11-27T13:08:14.774Z,100879.25
2022-11-27T13:13:24.578Z,100895.69
2022-11-27T13:18:35.217Z,100887.69
2022-11-27T13:23:38.900Z,100889.59
2022-11-27T13:28:45.843Z,100885.72
2022-11-27T13:33:52.388Z,100891.84
2022-11-27T13:38:59.307Z,100868.81
2022-11-27T13:44:04.880Z,100879.88
2022-11-27T13:49:27.700Z,100891.84
2022-11-27T13:54:31.362Z,100900.63
2022-11-27T13:59:39.159Z,100898.53
2022-11-27T14:04:56.104Z,100896.66
2022-11-27T14:10:10.138Z,100899.75
2022-11-27T14:15:23.981Z,100896.53
2022-11-27T14:20:33.732Z,100900.34
2022-11-27T14:25:37.546Z,100910.41
2022-11-27T14:30:46.043Z,100903.00
2022-11-27T14:35:52.446Z,100901.97
2022-11-27T14:41:07.978Z,100910.63
2022-11-27T14:46:16.587Z,100897.31
2022-11-27T14:51:24.543Z,100883.69
2022-11-27T14:56:32.686Z,100892.13
2022-11-27T15:01:37.444Z,100886.78
2022-11-27T15:06:45.437Z,100884.22
2022-11-27T15:11:56.819Z,100878.81
2022-11-27T15:17:00.899Z,100888.69
2022-11-27T15:22:06.668Z,100886.44
2022-11-27T15:27:19.110Z,100874.03
2022-11-27T15:32:25.586Z,100886.00
2022-11-27T15:37:34.686Z,100890.03
2022-11-27T15:42:38.550Z,100885.13
2022-11-27T15:47:42.747Z,100890.22
2022-11-27T15:52:48.835Z,100889.91
2022-11-27T15:57:55.666Z,100894.22
2022-11-27T16:02:59.445Z,100890.03
2022-11-27T16:08:05.938Z,100905.88
2022-11-27T16:13:09.992Z,100905.75
2022-11-27T16:18:13.714Z,100908.41
2022-11-27T16:23:18.519Z,100892.22
2022-11-27T16:28:21.994Z,100902.19
2022-11-27T16:33:27.243Z,100898.34
2022-11-27T16:38:34.351Z,100904.75
2022-11-27T16:43:42.170Z,100907.97
2022-11-27T16:48:47.010Z,100902.88
2022-11-27T16:53:52.677Z,100919.16
2022-11-27T16:59:01.156Z,100920.13
2022-11-27T17:04:09.323Z,100919.91
2022-11-27T17:09:17.117Z,100927.13
2022-11-27T17:14:23.183Z,100922.03
2022-11-27T17:19:30.272Z,100916.59
2022-11-27T17:24:36.445Z,100926.38
2022-11-27T17:29:41.157Z,100918.72
2022-11-27T17:34:45.603Z,100913.28
2022-11-27T17:39:51.033Z,100913.19
2022-11-27T17:44:57.790Z,100907.53
2022-11-27T17:50:04.673Z,100916.59
2022-11-27T17:55:13.089Z,100917.00
2022-11-27T18:00:18.904Z,100922.66
2022-11-27T18:05:24.055Z,100923.56
2022-11-27T18:10:31.507Z,100940.63
2022-11-27T18:15:35.896Z,100937.38
2022-11-27T18:20:39.400Z,100939.81
2022-11-27T18:25:48.841Z,100926.22
2022-11-27T18:30:53.211Z,100923.88
2022-11-27T18:36:00.113Z,100929.97
2022-11-27T18:41:10.207Z,100928.88
2022-11-27T18:46:15.325Z,100943.41
2022-11-27T18:51:21.010Z,100925.59
2022-11-27T18:56:35.553Z,100945.31
2022-11-27T19:01:42.232Z,100950.84
2022-11-27T19:06:46.655Z,100948.50
2022-11-27T19:11:52.037Z,100951.22
2022-11-27T19:16:59.080Z,100948.53
2022-11-27T19:22:05.306Z,100947.44
2022-11-27T19:27:10.184Z,100938.19
2022-11-27T19:32:13.641Z,100947.97
2022-11-27T19:37:33.154Z,100943.44
2022-11-27T19:42:38.705Z,100945.44
2022-11-27T19:47:41.797Z,100947.47
2022-11-27T19:52:45.513Z,100957.03
2022-11-27T19:57:50.728Z,100951.41
2022-11-27T20:02:54.112Z,100953.59
2022-11-27T20:07:57.943Z,100960.56
2022-11-27T20:13:03.026Z,100963.91
2022-11-27T20:18:06.587Z,100959.69
2022-11-27T20:23:09.880Z,100960.13
2022-11-27T20:28:15.147Z,100968.28
2022-11-27T20:33:19.992Z,100970.28
2022-11-27T20:38:23.157Z,100983.16
2022-11-27T20:43:27.746Z,100970.28
2022-11-27T20:48:31.023Z,100970.13
2022-11-27T20:53:34.585Z,100968.91
2022-11-27T20:58:40.577Z,100972.00
2022-11-27T21:03:44.053Z,100972.56
2022-11-27T21:08:47.538Z,100965.56
2022-11-27T21:13:52.733Z,100972.16
2022-11-27T21:18:56.776Z,100972.19
2022-11-27T21:24:00.702Z,100981.28
2022-11-27T21:29:05.780Z,100982.34
2022-11-27T21:34:10.411Z,100963.28
2022-11-27T21:39:20.296Z,100978.44
2022-11-27T21:44:26.109Z,100980.94
2022-11-27T21:49:29.477Z,100970.69
2022-11-27T21:54:32.830Z,100976.31
2022-11-27T21:59:37.546Z,100966.06
2022-11-27T22:04:40.876Z,100977.41
2022-11-27T22:09:44.392Z,100974.91
2022-11-27T22:14:50.780Z,100984.91
2022-11-27T22:19:54.204Z,100976.72
2022-11-27T22:24:57.697Z,100973.91
2022-11-27T22:30:02.447Z,100985.38
2022-11-27T22:35:07.553Z,100987.84
2022-11-27T22:40:11.519Z,100990.41
2022-11-27T22:45:16.646Z,100980.56
2022-11-27T22:50:19.869Z,100982.47
2022-11-27T22:55:23.044Z,100986.75
2022-11-27T23:00:27.673Z,100991.03
2022-11-27T23:05:30.876Z,100994.91
2022-11-27T23:10:34.382Z,101004.13
2022-11-27T23:15:39.168Z,101010.78
2022-11-27T23:20:43.268Z,101006.41
2022-11-27T23:25:46.530Z,101010.63
2022-11-27T23:31:08.809Z,101015.03
2022-11-27T23:36:14.530Z,101013.84
2022-11-27T23:41:19.188Z,101024.38
2022-11-27T23:46:26.485Z,101023.69
2022-11-27T23:51:32.899Z,101021.88
2022-11-27T23:56:36.512Z,101029.41
